sensor_id;sensor_type;location;lat;lon;timestamp;pressure;altitude;pressure_sealevel;temperature;humidity
43503;BME280;29098;48.184;16.298;2023-03-26T00:01:07;98736.53;;;9.03;65.83
43503;BME280;29098;48.184;16.298;2023-03-26T00:03:34;98705.50;;;8.76;66.33
43503;BME280;29098;48.184;16.298;2023-03-26T00:06:04;98737.72;;;8.85;66.29
43503;BME280;29098;48.184;16.298;2023-03-26T00:08:32;98750.97;;;8.92;66.55
43503;BME280;29098;48.184;16.298;2023-03-26T00:10:58;98747.72;;;8.90;66.28
43503;BME280;29098;48.184;16.298;2023-03-26T00:13:24;98748.78;;;8.96;66.19
43503;BME280;29098;48.184;16.298;2023-03-26T00:15:50;98740.06;;;8.95;66.16
43503;BME280;29098;48.184;16.298;2023-03-26T00:18:17;98746.59;;;8.99;65.91
43503;BME280;29098;48.184;16.298;2023-03-26T00:20:44;98760.19;;;9.03;65.71
43503;BME280;29098;48.184;16.298;2023-03-26T00:23:10;98748.72;;;9.11;65.74
43503;BME280;29098;48.184;16.298;2023-03-26T00:25:37;98729.31;;;9.12;65.01
43503;BME280;29098;48.184;16.298;2023-03-26T00:28:06;98713.03;;;9.01;65.31
43503;BME280;29098;48.184;16.298;2023-03-26T00:30:32;98738.72;;;8.99;65.06
43503;BME280;29098;48.184;16.298;2023-03-26T00:33:00;98725.72;;;9.13;65.02
43503;BME280;29098;48.184;16.298;2023-03-26T00:35:26;98714.75;;;9.09;65.59
43503;BME280;29098;48.184;16.298;2023-03-26T00:37:56;98714.06;;;9.22;65.12
43503;BME280;29098;48.184;16.298;2023-03-26T00:40:22;98733.78;;;9.11;65.35
43503;BME280;29098;48.184;16.298;2023-03-26T00:42:48;98712.16;;;8.94;65.76
43503;BME280;29098;48.184;16.298;2023-03-26T00:45:14;98750.59;;;9.17;65.08
43503;BME280;29098;48.184;16.298;2023-03-26T00:47:41;98714.75;;;9.09;64.75
43503;BME280;29098;48.184;16.298;2023-03-26T00:50:11;98719.75;;;9.04;64.95
43503;BME280;29098;48.184;16.298;2023-03-26T00:52:43;98721.50;;;9.18;64.59
43503;BME280;29098;48.184;16.298;2023-03-26T00:55:11;98738.22;;;9.11;64.62
43503;BME280;29098;48.184;16.298;2023-03-26T00:57:40;98741.41;;;9.28;64.59
43503;BME280;29098;48.184;16.298;2023-03-26T01:00:09;98755.63;;;9.34;64.23
43503;BME280;29098;48.184;16.298;2023-03-26T01:02:43;98739.53;;;9.43;64.20
43503;BME280;29098;48.184;16.298;2023-03-26T01:05:51;98738.78;;;9.28;64.43
43503;BME280;29098;48.184;16.298;2023-03-26T01:08:29;98757.38;;;9.26;64.77
43503;BME280;29098;48.184;16.298;2023-03-26T01:10:58;98726.19;;;9.23;64.71
43503;BME280;29098;48.184;16.298;2023-03-26T01:13:30;98752.56;;;9.30;64.54
43503;BME280;29098;48.184;16.298;2023-03-26T01:15:58;98709.53;;;9.16;64.27
43503;BME280;29098;48.184;16.298;2023-03-26T01:18:29;98708.28;;;9.12;64.30
43503;BME280;29098;48.184;16.298;2023-03-26T01:21:00;98710.47;;;9.30;64.23
43503;BME280;29098;48.184;16.298;2023-03-26T01:23:43;98697.41;;;9.15;64.48
43503;BME280;29098;48.184;16.298;2023-03-26T01:28:43;98710.03;;;9.26;64.22
43503;BME280;29098;48.184;16.298;2023-03-26T01:31:32;98689.00;;;9.26;64.04
43503;BME280;29098;48.184;16.298;2023-03-26T01:39:52;98709.31;;;9.39;63.93
43503;BME280;29098;48.184;16.298;2023-03-26T01:42:24;98692.63;;;9.25;63.82
43503;BME280;29098;48.184;16.298;2023-03-26T01:44:56;98712.97;;;9.38;64.29
43503;BME280;29098;48.184;16.298;2023-03-26T01:47:24;98708.09;;;9.35;64.46
43503;BME280;29098;48.184;16.298;2023-03-26T01:49:50;98699.75;;;9.31;64.11
43503;BME280;29098;48.184;16.298;2023-03-26T01:52:19;98728.13;;;9.58;63.56
43503;BME280;29098;48.184;16.298;2023-03-26T01:54:45;98721.25;;;9.64;63.54
43503;BME280;29098;48.184;16.298;2023-03-26T01:57:35;98710.25;;;9.53;64.03
43503;BME280;29098;48.184;16.298;2023-03-26T02:00:17;98732.19;;;9.61;63.76
43503;BME280;29098;48.184;16.298;2023-03-26T02:08:30;98701.38;;;9.32;64.13
43503;BME280;29098;48.184;16.298;2023-03-26T02:11:03;98697.72;;;9.55;63.54
43503;BME280;29098;48.184;16.298;2023-03-26T02:13:30;98711.88;;;9.54;64.33
43503;BME280;29098;48.184;16.298;2023-03-26T02:15:58;98705.72;;;9.40;64.72
43503;BME280;29098;48.184;16.298;2023-03-26T02:18:25;98665.97;;;9.28;65.17
43503;BME280;29098;48.184;16.298;2023-03-26T02:21:09;98708.38;;;9.47;65.28
43503;BME280;29098;48.184;16.298;2023-03-26T02:23:37;98712.75;;;9.33;66.01
43503;BME280;29098;48.184;16.298;2023-03-26T02:26:09;98688.13;;;9.19;66.13
43503;BME280;29098;48.184;16.298;2023-03-26T02:28:35;98679.47;;;9.25;66.31
43503;BME280;29098;48.184;16.298;2023-03-26T02:31:01;98696.53;;;9.29;65.99
43503;BME280;29098;48.184;16.298;2023-03-26T02:33:27;98700.03;;;9.37;66.01
43503;BME280;29098;48.184;16.298;2023-03-26T02:35:54;98700.78;;;9.30;66.15
43503;BME280;29098;48.184;16.298;2023-03-26T02:38:24;98652.25;;;9.11;66.39
43503;BME280;29098;48.184;16.298;2023-03-26T02:40:52;98681.75;;;9.28;66.51
43503;BME280;29098;48.184;16.298;2023-03-26T02:43:18;98682.63;;;9.14;66.79
43503;BME280;29098;48.184;16.298;2023-03-26T02:45:43;98679.88;;;9.22;66.98
43503;BME280;29098;48.184;16.298;2023-03-26T02:48:09;98704.16;;;9.24;67.06
43503;BME280;29098;48.184;16.298;2023-03-26T02:50:34;98669.22;;;9.30;66.49
43503;BME280;29098;48.184;16.298;2023-03-26T02:53:01;98677.84;;;9.24;66.50
43503;BME280;29098;48.184;16.298;2023-03-26T02:55:27;98701.25;;;9.19;67.29
43503;BME280;29098;48.184;16.298;2023-03-26T02:57:53;98697.13;;;9.31;66.75
43503;BME280;29098;48.184;16.298;2023-03-26T03:00:18;98684.38;;;9.28;66.51
43503;BME280;29098;48.184;16.298;2023-03-26T03:02:47;98681.66;;;9.22;66.75
43503;BME280;29098;48.184;16.298;2023-03-26T03:05:13;98690.69;;;9.12;66.94
43503;BME280;29098;48.184;16.298;2023-03-26T03:07:38;98657.53;;;9.11;67.08
43503;BME280;29098;48.184;16.298;2023-03-26T03:10:05;98685.13;;;9.22;66.79
43503;BME280;29098;48.184;16.298;2023-03-26T03:12:33;98666.59;;;9.30;66.51
43503;BME280;29098;48.184;16.298;2023-03-26T03:14:59;98658.63;;;9.24;66.55
43503;BME280;29098;48.184;16.298;2023-03-26T03:17:25;98679.66;;;9.24;67.33
43503;BME280;29098;48.184;16.298;2023-03-26T03:19:51;98678.47;;;9.26;66.96
43503;BME280;29098;48.184;16.298;2023-03-26T03:22:17;98658.63;;;9.24;66.86
43503;BME280;29098;48.184;16.298;2023-03-26T03:24:42;98681.78;;;9.35;66.65
43503;BME280;29098;48.184;16.298;2023-03-26T03:27:08;98691.13;;;9.38;67.33
43503;BME280;29098;48.184;16.298;2023-03-26T03:29:34;98655.38;;;9.22;67.40
43503;BME280;29098;48.184;16.298;2023-03-26T03:32:00;98673.78;;;9.22;67.56
43503;BME280;29098;48.184;16.298;2023-03-26T03:34:26;98680.44;;;9.17;67.78
43503;BME280;29098;48.184;16.298;2023-03-26T03:36:51;98683.72;;;9.26;67.65
43503;BME280;29098;48.184;16.298;2023-03-26T03:39:17;98669.56;;;9.27;67.22
43503;BME280;29098;48.184;16.298;2023-03-26T03:41:42;98649.69;;;9.18;67.54
43503;BME280;29098;48.184;16.298;2023-03-26T03:44:08;98663.38;;;9.35;67.29
43503;BME280;29098;48.184;16.298;2023-03-26T03:46:33;98665.03;;;9.14;67.54
43503;BME280;29098;48.184;16.298;2023-03-26T03:48:59;98656.13;;;9.15;67.71
43503;BME280;29098;48.184;16.298;2023-03-26T03:51:25;98651.72;;;9.23;67.19
43503;BME280;29098;48.184;16.298;2023-03-26T03:53:50;98661.34;;;9.09;67.81
43503;BME280;29098;48.184;16.298;2023-03-26T03:56:16;98655.56;;;9.20;67.28
43503;BME280;29098;48.184;16.298;2023-03-26T03:58:44;98625.22;;;9.17;66.93
43503;BME280;29098;48.184;16.298;2023-03-26T04:01:11;98663.94;;;9.30;66.68
43503;BME280;29098;48.184;16.298;2023-03-26T04:03:38;98646.16;;;9.32;66.86
43503;BME280;29098;48.184;16.298;2023-03-26T04:06:05;98663.94;;;9.30;66.72
43503;BME280;29098;48.184;16.298;2023-03-26T04:08:32;98676.97;;;9.39;66.18
43503;BME280;29098;48.184;16.298;2023-03-26T04:10:58;98675.34;;;9.38;66.60
43503;BME280;29098;48.184;16.298;2023-03-26T04:13:24;98667.81;;;9.35;66.37
43503;BME280;29098;48.184;16.298;2023-03-26T04:15:50;98666.81;;;9.36;66.33
43503;BME280;29098;48.184;16.298;2023-03-26T04:18:15;98664.38;;;9.34;65.99
43503;BME280;29098;48.184;16.298;2023-03-26T04:20:42;98649.19;;;9.29;66.38
43503;BME280;29098;48.184;16.298;2023-03-26T04:23:16;98670.78;;;9.25;66.28
43503;BME280;29098;48.184;16.298;2023-03-26T04:25:49;98671.22;;;9.28;66.24
43503;BME280;29098;48.184;16.298;2023-03-26T04:28:33;98659.47;;;9.31;65.71
43503;BME280;29098;48.184;16.298;2023-03-26T04:31:01;98682.53;;;9.29;65.89
43503;BME280;29098;48.184;16.298;2023-03-26T04:33:32;98649.84;;;9.16;66.23
43503;BME280;29098;48.184;16.298;2023-03-26T04:35:59;98668.25;;;9.16;66.39
43503;BME280;29098;48.184;16.298;2023-03-26T04:38:34;98660.19;;;9.18;66.19
43503;BME280;29098;48.184;16.298;2023-03-26T04:41:04;98657.00;;;9.23;66.13
43503;BME280;29098;48.184;16.298;2023-03-26T04:43:32;98637.09;;;9.13;65.82
43503;BME280;29098;48.184;16.298;2023-03-26T04:46:00;98662.59;;;9.13;66.12
43503;BME280;29098;48.184;16.298;2023-03-26T04:48:29;98615.88;;;9.15;65.29
43503;BME280;29098;48.184;16.298;2023-03-26T04:50:56;98638.38;;;9.17;65.37
43503;BME280;29098;48.184;16.298;2023-03-26T04:53:21;98657.44;;;9.26;65.31
43503;BME280;29098;48.184;16.298;2023-03-26T04:55:55;98639.34;;;9.16;64.74
43503;BME280;29098;48.184;16.298;2023-03-26T04:58:23;98636.78;;;9.23;64.93
43503;BME280;29098;48.184;16.298;2023-03-26T05:01:00;98651.41;;;9.32;64.70
43503;BME280;29098;48.184;16.298;2023-03-26T05:03:28;98633.69;;;9.13;65.02
43503;BME280;29098;48.184;16.298;2023-03-26T05:06:00;98629.03;;;9.15;65.16
43503;BME280;29098;48.184;16.298;2023-03-26T05:08:26;98661.94;;;9.32;64.29
43503;BME280;29098;48.184;16.298;2023-03-26T05:10:54;98650.66;;;9.39;64.24
43503;BME280;29098;48.184;16.298;2023-03-26T05:13:21;98643.53;;;9.32;64.17
43503;BME280;29098;48.184;16.298;2023-03-26T05:15:47;98663.09;;;9.23;65.13
43503;BME280;29098;48.184;16.298;2023-03-26T05:18:12;98655.81;;;9.25;65.30
43503;BME280;29098;48.184;16.298;2023-03-26T05:20:38;98673.41;;;9.25;65.11
43503;BME280;29098;48.184;16.298;2023-03-26T05:23:04;98686.13;;;9.21;65.73
43503;BME280;29098;48.184;16.298;2023-03-26T05:25:30;98690.25;;;9.30;65.46
43503;BME280;29098;48.184;16.298;2023-03-26T05:27:55;98654.28;;;9.09;65.66
43503;BME280;29098;48.184;16.298;2023-03-26T05:30:21;98684.66;;;9.40;65.26
43503;BME280;29098;48.184;16.298;2023-03-26T05:32:47;98695.25;;;9.25;65.48
43503;BME280;29098;48.184;16.298;2023-03-26T05:35:14;98695.78;;;9.14;65.73
43503;BME280;29098;48.184;16.298;2023-03-26T05:37:42;98682.94;;;9.04;66.42
43503;BME280;29098;48.184;16.298;2023-03-26T05:40:08;98690.63;;;9.27;65.77
43503;BME280;29098;48.184;16.298;2023-03-26T05:42:39;98709.81;;;9.21;66.17
43503;BME280;29098;48.184;16.298;2023-03-26T05:45:10;98682.84;;;9.19;65.59
43503;BME280;29098;48.184;16.298;2023-03-26T05:47:36;98704.63;;;9.35;65.29
43503;BME280;29098;48.184;16.298;2023-03-26T05:50:01;98701.53;;;9.24;65.64
43503;BME280;29098;48.184;16.298;2023-03-26T05:52:27;98677.97;;;9.16;66.00
43503;BME280;29098;48.184;16.298;2023-03-26T05:54:53;98684.13;;;9.23;65.79
43503;BME280;29098;48.184;16.298;2023-03-26T05:57:18;98677.22;;;9.22;66.07
43503;BME280;29098;48.184;16.298;2023-03-26T05:59:44;98717.13;;;9.48;65.53
43503;BME280;29098;48.184;16.298;2023-03-26T06:02:10;98728.19;;;9.43;65.94
43503;BME280;29098;48.184;16.298;2023-03-26T06:04:36;98724.75;;;9.42;66.26
43503;BME280;29098;48.184;16.298;2023-03-26T06:07:08;98728.97;;;9.37;66.48
43503;BME280;29098;48.184;16.298;2023-03-26T06:09:38;98689.63;;;9.07;67.06
43503;BME280;29098;48.184;16.298;2023-03-26T06:12:09;98719.44;;;9.14;66.98
43503;BME280;29098;48.184;16.298;2023-03-26T06:14:35;98720.69;;;9.18;67.00
43503;BME280;29098;48.184;16.298;2023-03-26T06:17:01;98716.56;;;9.09;67.26
43503;BME280;29098;48.184;16.298;2023-03-26T06:19:26;98748.56;;;9.34;67.25
43503;BME280;29098;48.184;16.298;2023-03-26T06:21:52;98750.13;;;9.28;66.78
43503;BME280;29098;48.184;16.298;2023-03-26T06:24:18;98752.06;;;9.20;67.48
43503;BME280;29098;48.184;16.298;2023-03-26T06:26:44;98746.75;;;9.13;67.91
43503;BME280;29098;48.184;16.298;2023-03-26T06:29:12;98749.47;;;9.26;67.36
43503;BME280;29098;48.184;16.298;2023-03-26T06:31:37;98766.00;;;9.42;67.24
43503;BME280;29098;48.184;16.298;2023-03-26T06:34:03;98734.72;;;9.25;67.15
43503;BME280;29098;48.184;16.298;2023-03-26T06:36:28;98742.72;;;9.17;67.32
43503;BME280;29098;48.184;16.298;2023-03-26T06:38:54;98760.53;;;9.37;67.43
43503;BME280;29098;48.184;16.298;2023-03-26T06:41:20;98753.59;;;9.36;67.14
43503;BME280;29098;48.184;16.298;2023-03-26T06:43:46;98771.28;;;9.42;67.16
43503;BME280;29098;48.184;16.298;2023-03-26T06:46:11;98788.19;;;9.54;67.22
43503;BME280;29098;48.184;16.298;2023-03-26T06:48:39;98773.91;;;9.42;67.71
43503;BME280;29098;48.184;16.298;2023-03-26T06:51:05;98787.94;;;9.49;67.84
43503;BME280;29098;48.184;16.298;2023-03-26T06:53:30;98767.41;;;9.38;67.86
43503;BME280;29098;48.184;16.298;2023-03-26T06:55:56;98789.69;;;9.64;67.52
43503;BME280;29098;48.184;16.298;2023-03-26T06:58:22;98755.63;;;9.55;67.65
43503;BME280;29098;48.184;16.298;2023-03-26T07:00:47;98763.19;;;9.65;67.09
43503;BME280;29098;48.184;16.298;2023-03-26T07:03:13;98772.69;;;9.88;66.92
43503;BME280;29098;48.184;16.298;2023-03-26T07:05:41;98784.38;;;10.07;65.08
43503;BME280;29098;48.184;16.298;2023-03-26T07:08:07;98770.84;;;9.89;66.51
43503;BME280;29098;48.184;16.298;2023-03-26T07:10:33;98781.19;;;10.19;65.36
43503;BME280;29098;48.184;16.298;2023-03-26T07:12:58;98749.88;;;10.02;65.29
43503;BME280;29098;48.184;16.298;2023-03-26T07:15:24;98759.31;;;10.18;64.86
43503;BME280;29098;48.184;16.298;2023-03-26T07:17:49;98773.72;;;10.22;64.60
43503;BME280;29098;48.184;16.298;2023-03-26T07:20:15;98769.91;;;10.32;64.41
43503;BME280;29098;48.184;16.298;2023-03-26T07:22:41;98762.81;;;10.32;64.58
43503;BME280;29098;48.184;16.298;2023-03-26T07:25:07;98760.00;;;10.34;64.33
43503;BME280;29098;48.184;16.298;2023-03-26T07:32:52;98735.16;;;10.50;63.21
43503;BME280;29098;48.184;16.298;2023-03-26T07:35:29;98731.94;;;10.54;63.10
43503;BME280;29098;48.184;16.298;2023-03-26T07:38:32;98731.63;;;10.71;62.85
43503;BME280;29098;48.184;16.298;2023-03-26T07:41:30;98715.72;;;10.51;62.33
43503;BME280;29098;48.184;16.298;2023-03-26T07:46:29;98730.38;;;10.67;61.19
43503;BME280;29098;48.184;16.298;2023-03-26T07:48:56;98739.94;;;10.75;61.11
43503;BME280;29098;48.184;16.298;2023-03-26T07:51:25;98725.13;;;10.74;60.89
43503;BME280;29098;48.184;16.298;2023-03-26T07:53:51;98704.06;;;10.87;60.43
43503;BME280;29098;48.184;16.298;2023-03-26T07:58:48;98722.75;;;10.99;59.28
43503;BME280;29098;48.184;16.298;2023-03-26T08:01:39;98721.34;;;11.03;59.49
43503;BME280;29098;48.184;16.298;2023-03-26T08:06:51;98727.69;;;11.36;58.99
43503;BME280;29098;48.184;16.298;2023-03-26T08:09:53;98728.91;;;11.47;58.37
43503;BME280;29098;48.184;16.298;2023-03-26T08:26:15;98721.66;;;12.42;56.28
43503;BME280;29098;48.184;16.298;2023-03-26T08:31:36;98711.16;;;12.22;55.31
43503;BME280;29098;48.184;16.298;2023-03-26T08:34:04;98720.69;;;12.36;55.70
43503;BME280;29098;48.184;16.298;2023-03-26T08:36:31;98712.06;;;12.47;55.41
43503;BME280;29098;48.184;16.298;2023-03-26T08:38:56;98704.31;;;12.59;54.29
43503;BME280;29098;48.184;16.298;2023-03-26T08:55:36;98673.00;;;12.63;52.71
43503;BME280;29098;48.184;16.298;2023-03-26T09:37:58;98566.91;;;13.66;47.43
43503;BME280;29098;48.184;16.298;2023-03-26T09:43:39;98577.44;;;13.92;45.64
43503;BME280;29098;48.184;16.298;2023-03-26T09:49:27;98563.19;;;14.23;44.55
43503;BME280;29098;48.184;16.298;2023-03-26T09:52:31;98560.16;;;14.20;44.04
43503;BME280;29098;48.184;16.298;2023-03-26T09:58:19;98543.69;;;14.72;43.20
43503;BME280;29098;48.184;16.298;2023-03-26T10:09:39;98515.75;;;14.58;44.54
43503;BME280;29098;48.184;16.298;2023-03-26T10:12:21;98489.56;;;14.49;42.87
43503;BME280;29098;48.184;16.298;2023-03-26T10:17:41;98483.00;;;14.64;42.88
43503;BME280;29098;48.184;16.298;2023-03-26T10:40:29;98414.03;;;14.28;41.11
43503;BME280;29098;48.184;16.298;2023-03-26T10:43:03;98436.66;;;14.55;41.17
43503;BME280;29098;48.184;16.298;2023-03-26T10:51:41;98404.38;;;14.82;39.84
43503;BME280;29098;48.184;16.298;2023-03-26T10:57:06;98403.69;;;14.98;40.10
43503;BME280;29098;48.184;16.298;2023-03-26T10:59:35;98360.53;;;14.91;40.36
43503;BME280;29098;48.184;16.298;2023-03-26T11:07:43;98369.84;;;15.34;39.82
43503;BME280;29098;48.184;16.298;2023-03-26T11:10:41;98398.84;;;15.94;39.10
43503;BME280;29098;48.184;16.298;2023-03-26T11:15:54;98361.50;;;16.80;37.09
43503;BME280;29098;48.184;16.298;2023-03-26T11:18:29;98357.94;;;16.91;36.89
43503;BME280;29098;48.184;16.298;2023-03-26T11:21:17;98335.88;;;17.18;36.96
43503;BME280;29098;48.184;16.298;2023-03-26T11:29:38;98333.91;;;17.96;34.23
43503;BME280;29098;48.184;16.298;2023-03-26T11:32:09;98314.16;;;17.92;33.41
43503;BME280;29098;48.184;16.298;2023-03-26T11:34:40;98321.53;;;17.79;32.08
43503;BME280;29098;48.184;16.298;2023-03-26T11:37:36;98308.06;;;17.64;32.25
43503;BME280;29098;48.184;16.298;2023-03-26T11:40:02;98318.09;;;18.17;31.81
43503;BME280;29098;48.184;16.298;2023-03-26T11:42:31;98311.91;;;17.18;32.32
43503;BME280;29098;48.184;16.298;2023-03-26T11:44:59;98279.00;;;17.62;32.24
43503;BME280;29098;48.184;16.298;2023-03-26T11:47:45;98328.34;;;17.37;32.59
43503;BME280;29098;48.184;16.298;2023-03-26T11:50:31;98302.94;;;16.80;33.20
43503;BME280;29098;48.184;16.298;2023-03-26T11:53:12;98279.16;;;16.95;33.73
43503;BME280;29098;48.184;16.298;2023-03-26T12:01:57;98300.22;;;16.13;34.16
43503;BME280;29098;48.184;16.298;2023-03-26T12:07:06;98236.75;;;16.16;34.83
43503;BME280;29098;48.184;16.298;2023-03-26T12:09:33;98238.91;;;16.20;35.49
43503;BME280;29098;48.184;16.298;2023-03-26T12:12:02;98258.59;;;16.01;35.44
43503;BME280;29098;48.184;16.298;2023-03-26T12:14:31;98274.41;;;15.91;35.56
43503;BME280;29098;48.184;16.298;2023-03-26T12:17:04;98246.78;;;15.75;34.74
43503;BME280;29098;48.184;16.298;2023-03-26T12:19:37;98241.28;;;15.65;35.58
43503;BME280;29098;48.184;16.298;2023-03-26T12:22:03;98257.41;;;15.58;34.45
43503;BME280;29098;48.184;16.298;2023-03-26T12:24:34;98245.16;;;15.40;33.92
43503;BME280;29098;48.184;16.298;2023-03-26T12:27:20;98230.91;;;15.46;34.58
43503;BME280;29098;48.184;16.298;2023-03-26T12:29:57;98235.59;;;15.56;33.54
43503;BME280;29098;48.184;16.298;2023-03-26T12:32:37;98229.13;;;15.69;34.21
43503;BME280;29098;48.184;16.298;2023-03-26T12:35:09;98222.41;;;16.00;33.70
43503;BME280;29098;48.184;16.298;2023-03-26T12:37:43;98233.63;;;15.85;33.66
43503;BME280;29098;48.184;16.298;2023-03-26T12:40:33;98193.56;;;15.70;33.12
43503;BME280;29098;48.184;16.298;2023-03-26T12:43:03;98228.94;;;16.10;32.70
43503;BME280;29098;48.184;16.298;2023-03-26T12:45:36;98204.94;;;15.87;33.20
43503;BME280;29098;48.184;16.298;2023-03-26T12:48:03;98200.28;;;15.78;33.98
43503;BME280;29098;48.184;16.298;2023-03-26T12:56:45;98175.47;;;16.28;32.78
43503;BME280;29098;48.184;16.298;2023-03-26T12:59:24;98183.56;;;16.39;33.22
43503;BME280;29098;48.184;16.298;2023-03-26T13:20:54;98149.03;;;16.44;31.09
43503;BME280;29098;48.184;16.298;2023-03-26T13:23:41;98151.72;;;15.99;31.55
43503;BME280;29098;48.184;16.298;2023-03-26T13:26:53;98115.31;;;16.00;32.06
43503;BME280;29098;48.184;16.298;2023-03-26T13:37:26;98137.50;;;16.11;32.60
43503;BME280;29098;48.184;16.298;2023-03-26T13:42:50;98107.78;;;15.92;32.10
43503;BME280;29098;48.184;16.298;2023-03-26T13:48:02;98097.47;;;15.78;33.11
43503;BME280;29098;48.184;16.298;2023-03-26T13:50:37;98080.41;;;15.74;33.23
43503;BME280;29098;48.184;16.298;2023-03-26T13:55:53;98084.00;;;15.63;32.91
43503;BME280;29098;48.184;16.298;2023-03-26T13:58:37;98060.22;;;15.51;33.42
43503;BME280;29098;48.184;16.298;2023-03-26T14:01:10;98071.34;;;15.70;33.69
43503;BME280;29098;48.184;16.298;2023-03-26T14:04:24;98041.22;;;15.42;33.60
43503;BME280;29098;48.184;16.298;2023-03-26T14:09:29;98056.69;;;15.45;34.11
43503;BME280;29098;48.184;16.298;2023-03-26T14:17:00;98036.44;;;15.83;35.05
43503;BME280;29098;48.184;16.298;2023-03-26T14:19:52;98053.22;;;16.11;34.18
43503;BME280;29098;48.184;16.298;2023-03-26T14:25:31;98030.28;;;16.60;33.59
43503;BME280;29098;48.184;16.298;2023-03-26T14:33:40;98009.13;;;16.76;34.07
43503;BME280;29098;48.184;16.298;2023-03-26T14:36:24;97988.44;;;16.50;34.22
43503;BME280;29098;48.184;16.298;2023-03-26T14:42:07;97986.44;;;16.35;34.50
43503;BME280;29098;48.184;16.298;2023-03-26T14:44:49;97996.53;;;16.33;34.80
43503;BME280;29098;48.184;16.298;2023-03-26T14:47:22;97973.72;;;16.37;34.65
43503;BME280;29098;48.184;16.298;2023-03-26T14:50:23;97960.31;;;16.27;34.89
43503;BME280;29098;48.184;16.298;2023-03-26T14:52:59;97996.25;;;16.29;34.66
43503;BME280;29098;48.184;16.298;2023-03-26T14:55:46;97997.75;;;16.20;35.15
43503;BME280;29098;48.184;16.298;2023-03-26T15:01:14;97983.03;;;16.07;35.76
43503;BME280;29098;48.184;16.298;2023-03-26T15:12:11;97956.56;;;15.45;38.43
43503;BME280;29098;48.184;16.298;2023-03-26T15:26:38;97967.69;;;15.42;39.36
43503;BME280;29098;48.184;16.298;2023-03-26T15:29:44;97946.81;;;15.29;39.63
43503;BME280;29098;48.184;16.298;2023-03-26T15:41:17;97976.88;;;15.34;39.21
43503;BME280;29098;48.184;16.298;2023-03-26T15:49:13;98009.16;;;15.04;37.75
43503;BME280;29098;48.184;16.298;2023-03-26T15:54:24;97980.22;;;14.85;38.04
43503;BME280;29098;48.184;16.298;2023-03-26T16:00:02;98013.78;;;14.62;39.49
43503;BME280;29098;48.184;16.298;2023-03-26T16:13:36;98028.25;;;14.37;42.16
43503;BME280;29098;48.184;16.298;2023-03-26T16:18:35;98016.25;;;14.35;41.68
43503;BME280;29098;48.184;16.298;2023-03-26T16:28:59;97981.94;;;13.82;44.04
43503;BME280;29098;48.184;16.298;2023-03-26T16:31:29;98036.19;;;13.91;44.64
43503;BME280;29098;48.184;16.298;2023-03-26T16:36:43;97961.81;;;13.28;45.80
43503;BME280;29098;48.184;16.298;2023-03-26T16:39:24;98032.56;;;13.68;45.63
43503;BME280;29098;48.184;16.298;2023-03-26T16:42:35;98019.78;;;13.65;45.87
43503;BME280;29098;48.184;16.298;2023-03-26T16:45:27;98005.44;;;13.49;46.59
43503;BME280;29098;48.184;16.298;2023-03-26T16:50:39;98024.66;;;13.33;47.36
43503;BME280;29098;48.184;16.298;2023-03-26T16:59:05;98025.09;;;13.29;47.48
43503;BME280;29098;48.184;16.298;2023-03-26T17:01:38;98003.03;;;13.24;47.49
43503;BME280;29098;48.184;16.298;2023-03-26T17:04:20;98029.47;;;13.36;47.34
43503;BME280;29098;48.184;16.298;2023-03-26T17:15:16;98052.59;;;12.93;49.58
43503;BME280;29098;48.184;16.298;2023-03-26T17:20:48;98036.13;;;12.67;50.01
43503;BME280;29098;48.184;16.298;2023-03-26T17:23:47;98073.31;;;12.96;49.96
43503;BME280;29098;48.184;16.298;2023-03-26T17:29:22;98050.66;;;12.88;50.79
43503;BME280;29098;48.184;16.298;2023-03-26T17:32:13;98021.25;;;12.42;51.41
43503;BME280;29098;48.184;16.298;2023-03-26T17:42:27;98048.59;;;12.47;52.54
43503;BME280;29098;48.184;16.298;2023-03-26T17:44:55;98047.00;;;12.46;52.87
43503;BME280;29098;48.184;16.298;2023-03-26T17:47:27;98021.13;;;12.25;53.34
43503;BME280;29098;48.184;16.298;2023-03-26T17:50:19;98057.00;;;12.44;53.21
43503;BME280;29098;48.184;16.298;2023-03-26T17:55:18;98023.97;;;12.23;54.15
43503;BME280;29098;48.184;16.298;2023-03-26T17:57:49;98037.66;;;12.32;54.07
43503;BME280;29098;48.184;16.298;2023-03-26T18:00:21;98045.75;;;12.49;53.85
43503;BME280;29098;48.184;16.298;2023-03-26T18:03:26;98032.00;;;12.28;54.26
43503;BME280;29098;48.184;16.298;2023-03-26T18:06:03;98046.25;;;12.27;54.99
43503;BME280;29098;48.184;16.298;2023-03-26T18:09:09;98058.16;;;12.37;55.45
43503;BME280;29098;48.184;16.298;2023-03-26T18:17:06;98034.84;;;12.15;56.21
43503;BME280;29098;48.184;16.298;2023-03-26T18:19:52;98066.25;;;12.23;56.63
43503;BME280;29098;48.184;16.298;2023-03-26T18:22:23;98020.25;;;11.93;57.17
43503;BME280;29098;48.184;16.298;2023-03-26T18:24:50;98018.84;;;11.79;57.51
43503;BME280;29098;48.184;16.298;2023-03-26T18:27:21;98043.22;;;12.12;56.95
43503;BME280;29098;48.184;16.298;2023-03-26T18:32:22;98027.75;;;11.97;57.77
43503;BME280;29098;48.184;16.298;2023-03-26T18:34:59;97986.69;;;11.51;57.88
43503;BME280;29098;48.184;16.298;2023-03-26T18:37:32;98013.00;;;11.89;58.03
43503;BME280;29098;48.184;16.298;2023-03-26T18:40:17;97985.25;;;11.68;57.97
43503;BME280;29098;48.184;16.298;2023-03-26T18:42:53;98048.19;;;12.01;58.24
43503;BME280;29098;48.184;16.298;2023-03-26T18:45:31;97985.03;;;11.69;58.43
43503;BME280;29098;48.184;16.298;2023-03-26T18:48:19;98022.84;;;11.82;58.96
43503;BME280;29098;48.184;16.298;2023-03-26T18:50:47;97978.00;;;11.63;58.85
43503;BME280;29098;48.184;16.298;2023-03-26T18:53:21;98030.75;;;12.00;58.76
43503;BME280;29098;48.184;16.298;2023-03-26T18:55:49;98010.81;;;11.86;59.00
43503;BME280;29098;48.184;16.298;2023-03-26T18:58:35;97993.06;;;11.93;58.71
43503;BME280;29098;48.184;16.298;2023-03-26T19:01:10;98014.91;;;12.00;58.84